createdAt,value
2023-03-14T00:01:33.250Z,0.40
2023-03-14T00:04:02.652Z,0.40
2023-03-14T00:06:32.649Z,0.40
2023-03-14T00:09:01.986Z,0.40
2023-03-14T00:11:32.205Z,0.23
2023-03-14T00:14:01.786Z,0.40
2023-03-14T00:16:32.623Z,0.50
2023-03-14T00:19:02.487Z,0.30
2023-03-14T00:21:32.122Z,0.50
2023-03-14T00:24:01.513Z,0.43
2023-03-14T00:26:31.014Z,0.40
2023-03-14T00:29:01.294Z,0.40
2023-03-14T00:31:32.350Z,0.40
2023-03-14T00:34:01.864Z,0.43
2023-03-14T00:36:31.307Z,0.40
2023-03-14T00:39:00.618Z,0.60
2023-03-14T00:41:30.015Z,0.50
2023-03-14T00:43:59.409Z,0.60
2023-03-14T00:46:30.551Z,0.40
2023-03-14T00:49:01.288Z,0.50
2023-03-14T00:51:30.682Z,0.30
2023-03-14T00:54:00.134Z,0.50
2023-03-14T00:56:29.874Z,0.43
2023-03-14T00:58:59.582Z,0.50
2023-03-14T01:01:29.384Z,0.60
2023-03-14T01:04:02.683Z,0.40
2023-03-14T01:06:32.201Z,0.40
2023-03-14T01:09:02.526Z,0.63
2023-03-14T01:11:34.461Z,0.50
2023-03-14T02:09:24.903Z,0.30
2023-03-14T02:11:55.274Z,0.47
2023-03-14T02:14:57.102Z,0.40
2023-03-14T02:17:34.125Z,0.43
2023-03-14T02:20:37.813Z,0.40
2023-03-14T02:23:07.937Z,0.50
2023-03-14T02:25:47.659Z,0.40
2023-03-14T02:28:19.192Z,0.70
2023-03-14T02:30:51.293Z,0.40
2023-03-14T02:33:23.245Z,0.40
2023-03-14T02:35:57.479Z,0.50
2023-03-14T02:38:33.742Z,0.50
2023-03-14T02:41:05.972Z,0.60
2023-03-14T02:43:41.622Z,0.43
2023-03-14T02:46:16.639Z,0.30
2023-03-14T02:48:49.839Z,0.40
2023-03-14T02:51:20.456Z,0.67
2023-03-14T02:53:51.146Z,0.30
2023-03-14T02:56:21.077Z,0.50
2023-03-14T02:58:52.108Z,0.50
2023-03-14T03:01:32.678Z,0.47
2023-03-14T03:04:02.393Z,0.50
2023-03-14T03:06:31.868Z,0.60
2023-03-14T03:09:01.405Z,0.50
2023-03-14T03:11:30.802Z,0.70
2023-03-14T03:14:01.636Z,0.57
2023-03-14T03:16:32.024Z,0.60
2023-03-14T03:19:03.191Z,0.47
2023-03-14T03:21:32.688Z,0.50
2023-03-14T03:24:02.167Z,0.47
2023-03-14T03:26:32.009Z,0.50
2023-03-14T03:29:03.312Z,0.40
2023-03-14T03:31:33.079Z,0.70
2023-03-14T03:34:03.090Z,0.40
2023-03-14T03:36:33.142Z,0.50
2023-03-14T03:39:03.495Z,0.40
2023-03-14T03:41:33.920Z,0.50
2023-03-14T03:44:07.073Z,0.40
2023-03-14T03:46:37.002Z,0.60
2023-03-14T03:49:07.363Z,0.50
2023-03-14T03:51:37.609Z,0.60
2023-03-14T03:54:07.709Z,0.40
2023-03-14T03:56:37.530Z,0.50
2023-03-14T03:59:08.634Z,0.70
2023-03-14T04:01:38.505Z,0.50
2023-03-14T04:04:09.083Z,0.60
2023-03-14T04:06:41.418Z,0.50
2023-03-14T04:09:11.975Z,0.60
2023-03-14T04:11:47.318Z,0.70
2023-03-14T04:14:24.466Z,0.50
2023-03-14T04:17:29.436Z,0.50
2023-03-14T04:19:59.626Z,0.40
2023-03-14T04:22:37.539Z,0.60
2023-03-14T04:25:09.707Z,0.40
2023-03-14T04:27:45.158Z,0.43
2023-03-14T04:30:29.525Z,0.60
2023-03-14T04:33:06.420Z,0.40
2023-03-14T04:35:39.360Z,0.57
2023-03-14T04:38:13.454Z,0.53
2023-03-14T04:40:46.612Z,0.50
2023-03-14T04:43:17.613Z,0.50
2023-03-14T04:45:59.941Z,0.47
2023-03-14T04:48:31.120Z,0.50
2023-03-14T04:51:02.366Z,0.50
2023-03-14T04:53:37.013Z,0.60
2023-03-14T04:56:11.740Z,0.63
2023-03-14T04:58:43.908Z,0.77
2023-03-14T05:01:15.767Z,0.53
2023-03-14T05:04:13.664Z,0.53
2023-03-14T05:06:54.028Z,0.70
2023-03-14T05:09:32.824Z,0.40
2023-03-14T05:12:25.663Z,0.60
2023-03-14T05:15:05.784Z,0.50
2023-03-14T05:17:54.123Z,0.50
2023-03-14T05:20:44.292Z,0.60
2023-03-14T05:23:23.602Z,0.40
2023-03-14T05:26:32.288Z,0.60
2023-03-14T05:29:28.464Z,0.70
2023-03-14T05:32:14.044Z,0.70
2023-03-14T05:35:12.368Z,0.40
2023-03-14T05:38:01.211Z,0.47
2023-03-14T05:41:00.185Z,0.60
2023-03-14T05:44:05.411Z,0.50
2023-03-14T05:46:58.291Z,0.50
2023-03-14T05:49:39.673Z,0.47
2023-03-14T05:52:36.628Z,0.40
2023-03-14T05:55:08.456Z,0.70
2023-03-14T05:58:01.741Z,0.53
2023-03-14T06:00:51.948Z,0.53
2023-03-14T06:03:35.135Z,0.50
2023-03-14T06:06:05.466Z,0.50
2023-03-14T06:08:36.844Z,0.53
2023-03-14T06:11:08.164Z,0.50
2023-03-14T06:13:38.527Z,0.43
2023-03-14T06:16:09.846Z,0.60
2023-03-14T06:18:39.833Z,0.40
2023-03-14T06:21:11.737Z,0.50
2023-03-14T06:23:43.377Z,0.50
2023-03-14T06:26:13.969Z,0.30
2023-03-14T06:28:44.053Z,0.60
2023-03-14T06:31:13.987Z,0.40
2023-03-14T06:33:55.870Z,0.60
2023-03-14T06:36:30.107Z,0.70
2023-03-14T06:39:02.586Z,0.40
2023-03-14T06:41:34.709Z,0.37
2023-03-14T06:44:05.474Z,0.50
2023-03-14T06:46:36.114Z,0.80
2023-03-14T06:49:06.524Z,0.50
2023-03-14T06:51:37.206Z,0.50
2023-03-14T06:54:10.473Z,0.70
2023-03-14T06:56:40.404Z,0.40
2023-03-14T06:59:10.599Z,0.47
2023-03-14T07:01:41.320Z,0.40
2023-03-14T07:04:14.363Z,0.40
2023-03-14T07:06:48.885Z,0.50
2023-03-14T07:09:20.390Z,0.60
2023-03-14T07:11:56.053Z,0.60
2023-03-14T07:14:26.798Z,0.50
2023-03-14T07:16:57.173Z,0.70
2023-03-14T07:19:27.243Z,0.60
2023-03-14T07:21:56.934Z,0.60
2023-03-14T07:24:31.386Z,0.70
2023-03-14T07:27:01.156Z,0.67
2023-03-14T07:29:30.997Z,0.43
2023-03-14T07:32:01.978Z,0.50
2023-03-14T07:34:31.864Z,0.47
2023-03-14T07:37:01.566Z,0.60
2023-03-14T07:39:33.270Z,0.50
2023-03-14T07:42:08.182Z,0.63
2023-03-14T07:44:52.322Z,0.47
2023-03-14T07:47:22.104Z,0.47
2023-03-14T07:49:53.860Z,0.50
2023-03-14T07:52:32.833Z,0.67
2023-03-14T07:55:06.886Z,0.30
2023-03-14T07:57:37.115Z,0.50
2023-03-14T08:00:09.362Z,0.50
2023-03-14T09:27:13.054Z,0.30
2023-03-14T09:29:42.310Z,0.37
2023-03-14T09:32:11.298Z,0.40
2023-03-14T09:34:40.323Z,0.30
2023-03-14T09:37:09.292Z,0.30
2023-03-14T09:39:41.398Z,0.20
2023-03-14T09:42:16.660Z,0.20
2023-03-14T09:44:56.412Z,0.20
2023-03-14T09:47:26.736Z,0.40
2023-03-14T09:49:56.195Z,0.30
2023-03-14T09:52:31.631Z,0.30
2023-03-14T09:55:05.747Z,0.37
2023-03-14T09:57:38.620Z,0.20
2023-03-14T10:00:17.656Z,0.40
2023-03-14T10:02:53.490Z,0.20
2023-03-14T10:05:25.769Z,0.30
2023-03-14T10:07:54.756Z,0.40
2023-03-14T10:10:27.126Z,0.30
2023-03-14T10:13:00.830Z,0.20
2023-03-14T10:15:35.405Z,0.87
2023-03-14T10:18:11.035Z,0.60
2023-03-14T10:20:42.847Z,0.50
2023-03-14T10:23:29.357Z,0.30
2023-03-14T10:26:08.328Z,0.20
2023-03-14T10:28:47.663Z,0.30
2023-03-14T10:31:17.876Z,0.40
2023-03-14T10:34:01.572Z,0.30
2023-03-14T10:36:32.219Z,0.30
2023-03-14T10:39:25.677Z,0.30
2023-03-14T10:41:59.914Z,0.20
2023-03-14T10:44:31.119Z,0.20
2023-03-14T10:47:03.993Z,0.30
2023-03-14T10:49:35.376Z,0.30
2023-03-14T10:52:17.569Z,0.30
2023-03-14T10:54:50.757Z,0.20
2023-03-14T10:57:22.728Z,0.30
2023-03-14T10:59:54.438Z,0.30
2023-03-14T11:02:49.400Z,0.20
2023-03-14T11:05:31.337Z,0.30
2023-03-14T11:08:07.008Z,0.37
2023-03-14T11:10:38.653Z,0.30
2023-03-14T11:13:18.869Z,0.20
2023-03-14T11:16:00.747Z,0.20
2023-03-14T11:19:35.835Z,0.30
2023-03-14T11:22:20.638Z,0.30
2023-03-14T11:25:09.917Z,0.30
2023-03-14T11:27:45.715Z,0.37
2023-03-14T11:30:26.612Z,0.30
2023-03-14T11:33:07.778Z,0.37
2023-03-14T11:35:46.391Z,0.30
2023-03-14T11:38:26.943Z,0.30
2023-03-14T11:40:58.896Z,0.30
2023-03-14T11:43:33.137Z,0.47
2023-03-14T11:46:09.887Z,0.40
2023-03-14T11:48:46.958Z,0.37
2023-03-14T11:51:24.312Z,0.30
2023-03-14T11:54:06.145Z,0.30
2023-03-14T11:56:41.058Z,0.47
2023-03-14T11:59:19.240Z,0.40
2023-03-14T12:01:57.082Z,0.30
2023-03-14T12:04:48.031Z,0.40
2023-03-14T12:07:25.012Z,0.30
2023-03-14T12:09:56.133Z,0.27
2023-03-14T12:12:27.902Z,0.30
2023-03-14T12:14:59.958Z,0.40
2023-03-14T12:17:37.986Z,0.40
2023-03-14T12:20:20.220Z,0.30
2023-03-14T12:22:51.604Z,0.30
2023-03-14T12:25:23.348Z,0.30
2023-03-14T12:28:21.704Z,0.40
2023-03-14T12:30:50.805Z,0.30
2023-03-14T12:33:33.678Z,0.30
2023-03-14T12:36:32.305Z,0.30
2023-03-14T12:39:18.379Z,0.30
2023-03-14T12:41:53.883Z,0.20
2023-03-14T12:44:42.640Z,0.13
2023-03-14T12:47:53.156Z,0.10
2023-03-14T12:50:28.687Z,0.20
2023-03-14T12:53:49.532Z,0.20
2023-03-14T12:56:27.155Z,0.70
2023-03-14T12:59:32.861Z,0.10
2023-03-14T13:02:25.540Z,0.30
2023-03-14T13:05:04.851Z,0.20
2023-03-14T13:08:08.466Z,0.10
2023-03-14T13:10:50.452Z,0.20
2023-03-14T13:13:26.743Z,0.30
2023-03-14T13:16:01.211Z,0.20
2023-03-14T13:18:37.556Z,0.40
2023-03-14T13:21:13.258Z,0.30
2023-03-14T13:23:57.033Z,0.30
2023-03-14T13:26:35.034Z,0.30
2023-03-14T13:29:16.681Z,0.30
2023-03-14T13:31:47.582Z,0.20
2023-03-14T13:34:17.582Z,0.30
2023-03-14T13:36:47.041Z,0.40
2023-03-14T13:39:23.101Z,0.33
2023-03-14T13:41:52.689Z,0.43
2023-03-14T13:44:29.667Z,0.40
2023-03-14T13:47:02.283Z,0.47
2023-03-14T13:49:36.547Z,0.40
2023-03-14T13:52:24.172Z,0.40
2023-03-14T13:54:57.952Z,0.53
2023-03-14T13:57:28.326Z,0.40
2023-03-14T14:00:10.136Z,0.33
2023-03-14T14:02:40.266Z,0.37
2023-03-14T14:05:13.723Z,0.60
2023-03-14T14:07:45.290Z,0.50
2023-03-14T14:10:16.922Z,0.43
2023-03-14T14:12:51.199Z,0.30
2023-03-14T14:15:24.260Z,0.50
2023-03-14T14:17:55.742Z,0.40
2023-03-14T14:20:32.792Z,0.40
2023-03-14T14:23:04.196Z,0.40
2023-03-14T14:25:35.554Z,0.50
2023-03-14T14:28:18.041Z,0.57
2023-03-14T14:30:49.294Z,0.50
2023-03-14T14:33:23.535Z,0.40
2023-03-14T14:35:57.221Z,0.40
2023-03-14T14:38:27.052Z,0.40
2023-03-14T14:41:03.911Z,0.60
2023-03-14T14:43:38.110Z,0.53
2023-03-14T14:46:10.492Z,0.60
2023-03-14T14:48:40.384Z,0.53
2023-03-14T14:51:10.205Z,0.50
2023-03-14T14:53:41.345Z,0.60
2023-03-14T14:56:23.307Z,0.50
2023-03-14T14:58:59.545Z,0.57
2023-03-14T15:01:35.473Z,0.50
2023-03-14T15:04:06.722Z,0.50
2023-03-14T15:06:35.820Z,0.40
2023-03-14T15:09:07.865Z,0.47
2023-03-14T15:11:40.564Z,0.33
2023-03-14T15:14:09.577Z,0.40
2023-03-14T15:16:38.660Z,0.40
2023-03-14T15:19:24.025Z,0.40
2023-03-14T15:21:54.999Z,0.40
2023-03-14T15:24:24.448Z,0.50
2023-03-14T15:26:54.898Z,0.80
2023-03-14T15:29:23.920Z,0.80
2023-03-14T15:31:52.928Z,1.20
2023-03-14T15:34:21.966Z,0.60
2023-03-14T15:36:51.002Z,0.47
2023-03-14T15:39:20.017Z,0.60
2023-03-14T15:41:49.052Z,0.40
2023-03-14T15:44:19.428Z,0.30
2023-03-14T15:46:48.464Z,0.20
2023-03-14T15:49:17.506Z,0.30
2023-03-14T15:51:46.565Z,0.40
2023-03-14T15:54:15.568Z,0.60
2023-03-14T15:56:44.610Z,0.50
2023-03-14T15:59:13.625Z,0.40
2023-03-14T16:01:49.031Z,0.33
2023-03-14T16:04:18.624Z,0.70
2023-03-14T16:06:48.112Z,0.40
2023-03-14T16:09:17.120Z,0.60
2023-03-14T16:11:47.363Z,0.40
2023-03-14T16:14:19.365Z,0.93
2023-03-14T16:16:49.842Z,0.50
2023-03-14T16:19:18.924Z,0.60
2023-03-14T16:21:48.544Z,0.43
2023-03-14T16:24:18.094Z,0.40
2023-03-14T16:26:47.288Z,0.50
2023-03-14T16:29:19.278Z,0.33
2023-03-14T16:31:52.470Z,0.40
2023-03-14T16:34:21.488Z,0.40
2023-03-14T16:36:52.071Z,0.30
2023-03-14T16:39:21.667Z,0.30
2023-03-14T16:41:57.268Z,0.40
2023-03-14T16:44:28.156Z,0.30
2023-03-14T16:46:58.533Z,0.40
2023-03-14T16:49:27.566Z,0.40
2023-03-14T16:51:58.820Z,0.40
2023-03-14T16:54:28.061Z,0.57
2023-03-14T16:56:57.123Z,0.40
2023-03-14T16:59:28.869Z,0.40
2023-03-14T17:01:59.313Z,0.40
2023-03-14T17:04:29.072Z,0.30
2023-03-14T17:06:58.760Z,0.50
2023-03-14T17:09:58.015Z,0.50
2023-03-14T17:12:27.632Z,0.50
2023-03-14T17:14:57.972Z,0.60
2023-03-14T17:17:28.961Z,0.63
2023-03-14T17:21:31.227Z,0.40
2023-03-14T17:24:02.419Z,0.40
2023-03-14T17:26:31.908Z,0.50
2023-03-14T17:29:01.416Z,0.50
2023-03-14T17:31:31.043Z,0.50
2023-03-14T17:34:01.995Z,0.47
2023-03-14T17:36:32.814Z,0.30
2023-03-14T17:39:34.576Z,0.30
2023-03-14T17:42:04.477Z,0.50
2023-03-14T17:44:34.882Z,0.60
2023-03-14T17:47:04.468Z,0.53
2023-03-14T17:50:09.066Z,0.30
2023-03-14T17:52:39.348Z,0.40
2023-03-14T17:55:10.371Z,0.50
2023-03-14T18:30:34.563Z,0.30
2023-03-14T18:33:04.064Z,0.30
2023-03-14T18:35:33.641Z,0.40
2023-03-14T18:38:03.066Z,0.33
2023-03-14T18:40:32.525Z,0.30
2023-03-14T18:43:01.895Z,0.40
2023-03-14T18:45:33.647Z,0.20
2023-03-14T18:48:03.139Z,0.33
2023-03-14T18:50:32.800Z,0.40
2023-03-14T18:53:03.246Z,0.40
2023-03-14T18:55:34.343Z,0.40
2023-03-14T18:58:03.918Z,0.30
2023-03-14T19:00:36.379Z,0.53
2023-03-14T19:07:50.906Z,0.40
2023-03-14T19:10:21.187Z,0.30
2023-03-14T19:14:19.906Z,0.33
2023-03-14T19:16:51.004Z,0.20
2023-03-14T19:19:21.279Z,0.20
2023-03-14T19:21:57.744Z,0.30
2023-03-14T19:24:35.195Z,0.30
2023-03-14T19:27:06.962Z,0.20
2023-03-14T19:34:02.553Z,0.20
2023-03-14T19:37:49.607Z,0.30
2023-03-14T19:40:19.546Z,0.30
2023-03-14T19:43:04.944Z,0.40
2023-03-14T19:45:37.146Z,0.30
2023-03-14T19:48:09.921Z,0.40
2023-03-14T19:55:35.598Z,0.40
2023-03-14T19:58:06.500Z,0.53
2023-03-14T20:00:36.228Z,0.60
2023-03-14T20:03:31.689Z,0.70
2023-03-14T20:06:05.466Z,1.00
2023-03-14T20:08:35.488Z,0.90
2023-03-14T20:11:08.681Z,0.70
2023-03-14T20:13:38.789Z,0.70
2023-03-14T20:16:11.812Z,0.80
2023-03-14T20:18:42.791Z,0.70
2023-03-14T20:21:14.375Z,0.73
2023-03-14T20:23:44.968Z,0.70
2023-03-14T20:26:17.440Z,1.07
2023-03-14T20:28:47.433Z,1.00
2023-03-14T20:31:17.111Z,1.30
2023-03-14T20:33:49.709Z,1.27
2023-03-14T20:36:22.080Z,0.77
2023-03-14T20:38:51.623Z,0.60
2023-03-14T20:41:23.282Z,0.90
2023-03-14T20:43:53.372Z,0.83
2023-03-14T20:46:50.651Z,0.70
2023-03-14T20:49:44.822Z,0.57
2023-03-14T20:52:17.636Z,0.70
2023-03-14T20:55:11.356Z,0.50
2023-03-14T20:57:44.517Z,0.50
2023-03-14T21:00:36.838Z,0.80
2023-03-14T21:03:14.684Z,0.70
2023-03-14T21:05:45.332Z,0.60
2023-03-14T21:08:15.229Z,0.60
2023-03-14T21:10:45.014Z,0.50
2023-03-14T21:13:16.324Z,0.70
2023-03-14T21:15:46.524Z,0.70
2023-03-14T21:18:16.421Z,0.67
2023-03-14T21:20:49.356Z,1.00
2023-03-14T21:24:06.765Z,0.60
2023-03-14T21:27:25.722Z,0.43
2023-03-14T21:34:26.871Z,0.40
2023-03-14T21:36:56.735Z,0.60
2023-03-14T21:39:33.025Z,1.00
2023-03-14T21:42:02.661Z,1.00
2023-03-14T21:44:37.416Z,0.97
2023-03-14T21:47:08.321Z,0.93
2023-03-14T21:49:39.564Z,0.87
2023-03-14T21:52:12.269Z,0.67
2023-03-14T21:54:44.066Z,0.70
2023-03-14T21:57:40.533Z,0.67
2023-03-14T22:00:22.131Z,0.50
2023-03-14T22:03:11.695Z,0.60
2023-03-14T22:05:46.236Z,0.60
2023-03-14T22:08:22.800Z,0.80
2023-03-14T22:10:53.963Z,0.63
2023-03-14T22:13:26.069Z,0.70
2023-03-14T22:16:35.202Z,0.50
2023-03-14T22:19:13.358Z,0.77
2023-03-14T22:21:49.235Z,0.70
2023-03-14T22:24:22.090Z,0.90
2023-03-14T22:26:55.882Z,0.80
2023-03-14T22:29:42.573Z,0.90
2023-03-14T22:32:15.761Z,0.70
2023-03-14T22:34:57.379Z,0.50
2023-03-14T22:37:31.488Z,0.70
2023-03-14T22:40:01.229Z,0.80
2023-03-14T22:42:32.172Z,0.60
2023-03-14T22:46:18.058Z,0.50
2023-03-14T22:50:04.916Z,0.80
2023-03-14T22:52:51.814Z,0.73
2023-03-14T22:55:21.345Z,0.60
2023-03-14T22:57:54.227Z,0.80
2023-03-14T23:05:12.327Z,0.70
2023-03-14T23:07:42.045Z,0.80
2023-03-14T23:10:14.137Z,0.70
2023-03-14T23:12:45.326Z,0.60
2023-03-14T23:15:29.348Z,0.50
2023-03-14T23:18:11.353Z,0.50
2023-03-14T23:20:41.050Z,0.73
2023-03-14T23:23:13.750Z,0.70
2023-03-14T23:25:53.276Z,0.60
2023-03-14T23:28:23.843Z,0.57
2023-03-14T23:31:10.391Z,0.83
2023-03-14T23:33:40.041Z,0.80
2023-03-14T23:36:13.531Z,0.73
2023-03-14T23:39:21.301Z,0.87
2023-03-14T23:41:52.334Z,0.90
2023-03-14T23:44:23.188Z,1.10
2023-03-14T23:47:10.971Z,1.10
2023-03-14T23:50:31.546Z,1.10
2023-03-14T23:53:17.157Z,0.90
2023-03-14T23:55:47.043Z,1.10
2023-03-14T23:58:21.620Z,1.00
